sensor_id;sensor_type;location;lat;lon;timestamp;P1;durP1;ratioP1;P2;durP2;ratioP2
61675;SDS011;47574;52.090;5.244;2023-05-10T00:00:14;67.91;;;47.6;;
61675;SDS011;47574;52.090;5.244;2023-05-10T00:01:51;66.8;;;48.5;;
61675;SDS011;47574;52.090;5.244;2023-05-10T00:05:03;65.5;;;47.5;;
61675;SDS011;47574;52.090;5.244;2023-05-10T00:06:40;65.1;;;46.7;;
61675;SDS011;47574;52.090;5.244;2023-05-10T00:08:16;64.5;;;48.1;;
61675;SDS011;47574;52.090;5.244;2023-05-10T00:09:52;70.61;;;49.5;;
61675;SDS011;47574;52.090;5.244;2023-05-10T00:13:05;68.8;;;49.3;;
61675;SDS011;47574;52.090;5.244;2023-05-10T00:14:41;73.41;;;50.8;;
61675;SDS011;47574;52.090;5.244;2023-05-10T00:16:17;64.7;;;49.8;;
61675;SDS011;47574;52.090;5.244;2023-05-10T00:19:29;69.7;;;49.7;;
61675;SDS011;47574;52.090;5.244;2023-05-10T00:21:05;67.6;;;49.2;;
61675;SDS011;47574;52.090;5.244;2023-05-10T00:22:41;63.6;;;47.2;;
61675;SDS011;47574;52.090;5.244;2023-05-10T00:25:54;72.2;;;51.1;;
61675;SDS011;47574;52.090;5.244;2023-05-10T00:27:30;70.7;;;50.7;;
61675;SDS011;47574;52.090;5.244;2023-05-10T00:29:06;72.7;;;50.0;;
61675;SDS011;47574;52.090;5.244;2023-05-10T00:30:42;70.41;;;50.6;;
61675;SDS011;47574;52.090;5.244;2023-05-10T00:33:54;72.41;;;50.3;;
61675;SDS011;47574;52.090;5.244;2023-05-10T00:35:31;67.2;;;49.3;;
61675;SDS011;47574;52.090;5.244;2023-05-10T00:37:08;72.5;;;51.2;;
61675;SDS011;47574;52.090;5.244;2023-05-10T00:40:20;71.11;;;50.8;;
61675;SDS011;47574;52.090;5.244;2023-05-10T00:41:56;73.0;;;50.7;;
61675;SDS011;47574;52.090;5.244;2023-05-10T00:43:32;73.11;;;50.7;;
61675;SDS011;47574;52.090;5.244;2023-05-10T00:46:44;78.91;;;51.9;;
61675;SDS011;47574;52.090;5.244;2023-05-10T00:48:20;78.7;;;52.2;;
61675;SDS011;47574;52.090;5.244;2023-05-10T00:49:58;74.41;;;50.0;;
61675;SDS011;47574;52.090;5.244;2023-05-10T00:53:10;74.5;;;50.7;;
61675;SDS011;47574;52.090;5.244;2023-05-10T01:01:11;79.3;;;51.7;;
61675;SDS011;47574;52.090;5.244;2023-05-10T01:02:49;75.11;;;51.3;;
61675;SDS011;47574;52.090;5.244;2023-05-10T01:04:25;82.7;;;52.6;;
61675;SDS011;47574;52.090;5.244;2023-05-10T01:07:37;84.6;;;51.8;;
61675;SDS011;47574;52.090;5.244;2023-05-10T01:09:13;75.5;;;51.0;;
61675;SDS011;47574;52.090;5.244;2023-05-10T01:10:49;77.7;;;50.6;;
61675;SDS011;47574;52.090;5.244;2023-05-10T01:14:01;82.7;;;52.0;;
61675;SDS011;47574;52.090;5.244;2023-05-10T01:15:39;83.9;;;53.0;;
61675;SDS011;47574;52.090;5.244;2023-05-10T01:17:16;82.1;;;52.8;;
61675;SDS011;47574;52.090;5.244;2023-05-10T01:18:53;80.0;;;51.6;;
61675;SDS011;47574;52.090;5.244;2023-05-10T01:22:25;77.5;;;50.5;;
61675;SDS011;47574;52.090;5.244;2023-05-10T01:24:38;80.61;;;51.1;;
61675;SDS011;47574;52.090;5.244;2023-05-10T01:28:05;79.0;;;50.3;;
61675;SDS011;47574;52.090;5.244;2023-05-10T01:30:05;80.8;;;49.8;;
61675;SDS011;47574;52.090;5.244;2023-05-10T01:32:03;75.11;;;49.2;;
61675;SDS011;47574;52.090;5.244;2023-05-10T01:33:52;81.41;;;51.3;;
61675;SDS011;47574;52.090;5.244;2023-05-10T01:37:20;80.7;;;49.5;;
61675;SDS011;47574;52.090;5.244;2023-05-10T01:39:02;80.41;;;49.8;;
61675;SDS011;47574;52.090;5.244;2023-05-10T01:40:48;83.4;;;50.2;;
61675;SDS011;47574;52.090;5.244;2023-05-10T01:42:38;77.5;;;48.6;;
61675;SDS011;47574;52.090;5.244;2023-05-10T01:44:24;79.5;;;48.4;;
61675;SDS011;47574;52.090;5.244;2023-05-10T01:46:10;82.5;;;51.2;;
61675;SDS011;47574;52.090;5.244;2023-05-10T01:49:39;78.2;;;49.1;;
61675;SDS011;47574;52.090;5.244;2023-05-10T01:51:19;81.5;;;49.1;;
61675;SDS011;47574;52.090;5.244;2023-05-10T01:53:00;85.7;;;50.5;;
61675;SDS011;47574;52.090;5.244;2023-05-10T01:54:37;82.0;;;50.3;;
61675;SDS011;47574;52.090;5.244;2023-05-10T01:58:01;83.3;;;50.4;;
61675;SDS011;47574;52.090;5.244;2023-05-10T01:59:40;83.2;;;50.7;;
61675;SDS011;47574;52.090;5.244;2023-05-10T02:01:21;82.6;;;52.4;;
61675;SDS011;47574;52.090;5.244;2023-05-10T02:02:58;79.3;;;50.0;;
61675;SDS011;47574;52.090;5.244;2023-05-10T02:06:18;90.8;;;53.9;;
61675;SDS011;47574;52.090;5.244;2023-05-10T02:07:57;88.9;;;53.3;;
61675;SDS011;47574;52.090;5.244;2023-05-10T02:09:35;91.4;;;54.8;;
61675;SDS011;47574;52.090;5.244;2023-05-10T02:11:14;87.9;;;53.7;;
61675;SDS011;47574;52.090;5.244;2023-05-10T02:14:30;85.5;;;52.9;;
61675;SDS011;47574;52.090;5.244;2023-05-10T02:16:10;95.6;;;55.1;;
61675;SDS011;47574;52.090;5.244;2023-05-10T02:17:49;97.9;;;58.2;;
61675;SDS011;47574;52.090;5.244;2023-05-10T02:19:29;94.7;;;55.9;;
61675;SDS011;47574;52.090;5.244;2023-05-10T02:22:45;91.4;;;55.2;;
61675;SDS011;47574;52.090;5.244;2023-05-10T02:24:24;99.9;;;57.6;;
61675;SDS011;47574;52.090;5.244;2023-05-10T02:26:02;104.4;;;57.3;;
61675;SDS011;47574;52.090;5.244;2023-05-10T02:29:18;103.8;;;57.5;;
61675;SDS011;47574;52.090;5.244;2023-05-10T02:30:55;108.5;;;58.1;;
61675;SDS011;47574;52.090;5.244;2023-05-10T02:32:32;104.3;;;58.8;;
61675;SDS011;47574;52.090;5.244;2023-05-10T02:34:10;113.0;;;59.8;;
61675;SDS011;47574;52.090;5.244;2023-05-10T02:37:27;121.6;;;63.5;;
61675;SDS011;47574;52.090;5.244;2023-05-10T02:39:04;111.9;;;60.3;;
61675;SDS011;47574;52.090;5.244;2023-05-10T02:40:42;125.2;;;63.0;;
61675;SDS011;47574;52.090;5.244;2023-05-10T02:44:04;120.0;;;62.8;;
61675;SDS011;47574;52.090;5.244;2023-05-10T02:45:43;118.3;;;60.9;;
61675;SDS011;47574;52.090;5.244;2023-05-10T02:47:23;129.1;;;61.6;;
61675;SDS011;47574;52.090;5.244;2023-05-10T02:48:59;139.81;;;61.5;;
61675;SDS011;47574;52.090;5.244;2023-05-10T02:52:19;128.9;;;59.4;;
61675;SDS011;47574;52.090;5.244;2023-05-10T02:54:00;134.81;;;61.1;;
61675;SDS011;47574;52.090;5.244;2023-05-10T02:55:57;133.2;;;60.6;;
61675;SDS011;47574;52.090;5.244;2023-05-10T02:57:38;140.71;;;63.2;;
61675;SDS011;47574;52.090;5.244;2023-05-10T02:59:17;141.1;;;64.0;;
61675;SDS011;47574;52.090;5.244;2023-05-10T03:02:29;133.5;;;62.8;;
61675;SDS011;47574;52.090;5.244;2023-05-10T03:04:05;133.2;;;62.5;;
61675;SDS011;47574;52.090;5.244;2023-05-10T03:05:42;124.6;;;61.1;;
61675;SDS011;47574;52.090;5.244;2023-05-10T03:08:55;125.4;;;62.1;;
61675;SDS011;47574;52.090;5.244;2023-05-10T03:10:31;125.4;;;62.1;;
61675;SDS011;47574;52.090;5.244;2023-05-10T03:12:13;127.0;;;62.2;;
61675;SDS011;47574;52.090;5.244;2023-05-10T03:14:08;122.1;;;62.7;;
61675;SDS011;47574;52.090;5.244;2023-05-10T03:17:39;124.7;;;62.6;;
61675;SDS011;47574;52.090;5.244;2023-05-10T03:19:24;120.5;;;61.4;;
61675;SDS011;47574;52.090;5.244;2023-05-10T03:21:07;113.7;;;60.8;;
61675;SDS011;47574;52.090;5.244;2023-05-10T03:22:47;121.9;;;63.0;;
61675;SDS011;47574;52.090;5.244;2023-05-10T03:24:27;117.3;;;61.5;;
61675;SDS011;47574;52.090;5.244;2023-05-10T03:27:43;107.9;;;58.9;;
61675;SDS011;47574;52.090;5.244;2023-05-10T03:29:20;103.7;;;57.6;;
61675;SDS011;47574;52.090;5.244;2023-05-10T03:30:59;105.2;;;58.7;;
61675;SDS011;47574;52.090;5.244;2023-05-10T03:34:11;106.2;;;57.5;;
61675;SDS011;47574;52.090;5.244;2023-05-10T03:35:47;108.8;;;58.2;;
61675;SDS011;47574;52.090;5.244;2023-05-10T03:37:23;109.5;;;55.7;;
61675;SDS011;47574;52.090;5.244;2023-05-10T03:38:59;105.5;;;57.0;;
61675;SDS011;47574;52.090;5.244;2023-05-10T03:42:11;115.7;;;59.3;;
61675;SDS011;47574;52.090;5.244;2023-05-10T03:43:48;110.9;;;57.5;;
61675;SDS011;47574;52.090;5.244;2023-05-10T03:45:24;111.0;;;57.4;;
61675;SDS011;47574;52.090;5.244;2023-05-10T03:48:36;110.3;;;56.9;;
61675;SDS011;47574;52.090;5.244;2023-05-10T03:50:13;117.8;;;59.6;;
61675;SDS011;47574;52.090;5.244;2023-05-10T03:51:49;111.4;;;59.1;;
61675;SDS011;47574;52.090;5.244;2023-05-10T03:55:01;112.7;;;57.7;;
61675;SDS011;47574;52.090;5.244;2023-05-10T03:56:38;120.1;;;57.9;;
61675;SDS011;47574;52.090;5.244;2023-05-10T03:58:14;120.1;;;57.9;;
61675;SDS011;47574;52.090;5.244;2023-05-10T04:01:27;121.5;;;58.3;;
61675;SDS011;47574;52.090;5.244;2023-05-10T04:03:03;117.7;;;58.0;;
61675;SDS011;47574;52.090;5.244;2023-05-10T04:04:39;116.9;;;58.1;;
61675;SDS011;47574;52.090;5.244;2023-05-10T04:06:15;121.1;;;59.1;;
61675;SDS011;47574;52.090;5.244;2023-05-10T04:13:13;131.31;;;61.6;;
61675;SDS011;47574;52.090;5.244;2023-05-10T04:14:49;132.2;;;61.6;;
61675;SDS011;47574;52.090;5.244;2023-05-10T04:18:01;125.4;;;60.3;;
61675;SDS011;47574;52.090;5.244;2023-05-10T04:19:37;135.5;;;63.5;;
61675;SDS011;47574;52.090;5.244;2023-05-10T04:21:14;130.81;;;59.7;;
61675;SDS011;47574;52.090;5.244;2023-05-10T04:24:26;131.9;;;63.6;;
61675;SDS011;47574;52.090;5.244;2023-05-10T04:26:02;128.6;;;61.8;;
61675;SDS011;47574;52.090;5.244;2023-05-10T04:27:38;128.1;;;61.0;;
61675;SDS011;47574;52.090;5.244;2023-05-10T04:29:14;137.9;;;63.8;;
61675;SDS011;47574;52.090;5.244;2023-05-10T04:32:27;136.6;;;63.7;;
61675;SDS011;47574;52.090;5.244;2023-05-10T04:34:03;136.6;;;63.7;;
61675;SDS011;47574;52.090;5.244;2023-05-10T04:35:39;125.4;;;61.5;;
61675;SDS011;47574;52.090;5.244;2023-05-10T04:38:51;132.81;;;64.3;;
61675;SDS011;47574;52.090;5.244;2023-05-10T04:40:27;128.2;;;62.2;;
61675;SDS011;47574;52.090;5.244;2023-05-10T04:42:03;130.31;;;63.3;;
61675;SDS011;47574;52.090;5.244;2023-05-10T04:45:16;139.5;;;64.7;;
61675;SDS011;47574;52.090;5.244;2023-05-10T04:46:52;124.6;;;62.3;;
61675;SDS011;47574;52.090;5.244;2023-05-10T04:48:28;136.6;;;66.0;;
61675;SDS011;47574;52.090;5.244;2023-05-10T04:51:42;124.4;;;60.6;;
61675;SDS011;47574;52.090;5.244;2023-05-10T04:53:18;120.3;;;60.3;;
61675;SDS011;47574;52.090;5.244;2023-05-10T04:54:54;118.7;;;62.0;;
61675;SDS011;47574;52.090;5.244;2023-05-10T04:56:30;116.9;;;61.4;;
61675;SDS011;47574;52.090;5.244;2023-05-10T04:59:43;117.4;;;61.3;;
61675;SDS011;47574;52.090;5.244;2023-05-10T05:01:19;119.3;;;61.3;;
61675;SDS011;47574;52.090;5.244;2023-05-10T05:02:55;117.9;;;62.3;;
61675;SDS011;47574;52.090;5.244;2023-05-10T05:06:07;115.9;;;61.8;;
61675;SDS011;47574;52.090;5.244;2023-05-10T05:07:43;118.6;;;63.3;;
61675;SDS011;47574;52.090;5.244;2023-05-10T05:09:20;110.3;;;61.0;;
61675;SDS011;47574;52.090;5.244;2023-05-10T05:12:32;108.6;;;60.5;;
61675;SDS011;47574;52.090;5.244;2023-05-10T05:14:08;111.3;;;60.9;;
61675;SDS011;47574;52.090;5.244;2023-05-10T05:15:44;100.6;;;60.4;;
61675;SDS011;47574;52.090;5.244;2023-05-10T05:20:37;103.9;;;60.7;;
61675;SDS011;47574;52.090;5.244;2023-05-10T05:22:16;101.8;;;60.7;;
61675;SDS011;47574;52.090;5.244;2023-05-10T05:23:53;101.1;;;60.5;;
61675;SDS011;47574;52.090;5.244;2023-05-10T05:27:07;96.3;;;59.7;;
61675;SDS011;47574;52.090;5.244;2023-05-10T05:28:42;104.3;;;61.5;;
61675;SDS011;47574;52.090;5.244;2023-05-10T05:30:18;96.2;;;59.8;;
61675;SDS011;47574;52.090;5.244;2023-05-10T05:33:32;98.2;;;59.7;;
61675;SDS011;47574;52.090;5.244;2023-05-10T05:35:09;99.7;;;60.4;;
61675;SDS011;47574;52.090;5.244;2023-05-10T05:36:45;103.9;;;61.6;;
61675;SDS011;47574;52.090;5.244;2023-05-10T05:38:22;101.5;;;61.5;;
61675;SDS011;47574;52.090;5.244;2023-05-10T05:41:37;90.2;;;55.3;;
61675;SDS011;47574;52.090;5.244;2023-05-10T05:43:15;94.5;;;54.8;;
61675;SDS011;47574;52.090;5.244;2023-05-10T05:44:53;96.1;;;55.1;;
61675;SDS011;47574;52.090;5.244;2023-05-10T05:48:08;93.8;;;57.3;;
61675;SDS011;47574;52.090;5.244;2023-05-10T05:49:46;97.3;;;56.4;;
61675;SDS011;47574;52.090;5.244;2023-05-10T05:51:24;88.5;;;54.4;;
61675;SDS011;47574;52.090;5.244;2023-05-10T05:53:01;85.6;;;53.0;;
61675;SDS011;47574;52.090;5.244;2023-05-10T05:56:14;84.5;;;51.2;;
61675;SDS011;47574;52.090;5.244;2023-05-10T05:57:52;89.1;;;53.0;;
61675;SDS011;47574;52.090;5.244;2023-05-10T05:59:30;95.0;;;55.9;;
61675;SDS011;47574;52.090;5.244;2023-05-10T06:02:45;89.1;;;55.3;;
61675;SDS011;47574;52.090;5.244;2023-05-10T06:04:23;98.4;;;57.8;;
61675;SDS011;47574;52.090;5.244;2023-05-10T06:06:01;101.2;;;59.3;;
61675;SDS011;47574;52.090;5.244;2023-05-10T06:07:39;96.5;;;56.1;;
61675;SDS011;47574;52.090;5.244;2023-05-10T06:10:53;91.9;;;53.7;;
61675;SDS011;47574;52.090;5.244;2023-05-10T06:12:30;90.2;;;50.7;;
61675;SDS011;47574;52.090;5.244;2023-05-10T06:14:08;89.4;;;50.5;;
61675;SDS011;47574;52.090;5.244;2023-05-10T06:17:23;85.9;;;48.4;;
61675;SDS011;47574;52.090;5.244;2023-05-10T06:19:00;80.0;;;48.0;;
61675;SDS011;47574;52.090;5.244;2023-05-10T06:20:38;80.41;;;48.3;;
61675;SDS011;47574;52.090;5.244;2023-05-10T06:22:17;75.5;;;46.4;;
61675;SDS011;47574;52.090;5.244;2023-05-10T06:25:33;70.41;;;44.1;;
61675;SDS011;47574;52.090;5.244;2023-05-10T06:27:11;65.5;;;42.5;;
61675;SDS011;47574;52.090;5.244;2023-05-10T06:28:48;61.4;;;39.5;;
61675;SDS011;47574;52.090;5.244;2023-05-10T06:32:04;58.8;;;38.6;;
61675;SDS011;47574;52.090;5.244;2023-05-10T06:33:41;50.3;;;33.8;;
61675;SDS011;47574;52.090;5.244;2023-05-10T06:35:19;44.9;;;30.9;;
61675;SDS011;47574;52.090;5.244;2023-05-10T06:36:57;43.9;;;30.0;;
61675;SDS011;47574;52.090;5.244;2023-05-10T06:40:13;41.2;;;28.5;;
61675;SDS011;47574;52.090;5.244;2023-05-10T06:41:51;38.71;;;27.7;;
61675;SDS011;47574;52.090;5.244;2023-05-10T06:43:28;34.31;;;25.1;;
61675;SDS011;47574;52.090;5.244;2023-05-10T06:46:44;33.8;;;23.2;;
61675;SDS011;47574;52.090;5.244;2023-05-10T06:48:21;29.7;;;21.7;;
61675;SDS011;47574;52.090;5.244;2023-05-10T06:49:58;29.1;;;20.8;;
61675;SDS011;47574;52.090;5.244;2023-05-10T06:51:35;29.1;;;20.8;;
61675;SDS011;47574;52.090;5.244;2023-05-10T06:54:49;28.0;;;20.5;;
61675;SDS011;47574;52.090;5.244;2023-05-10T06:56:26;27.5;;;20.7;;
61675;SDS011;47574;52.090;5.244;2023-05-10T06:58:03;28.2;;;21.1;;
61675;SDS011;47574;52.090;5.244;2023-05-10T07:01:18;25.2;;;18.8;;
61675;SDS011;47574;52.090;5.244;2023-05-10T07:02:56;24.0;;;18.61;;
61675;SDS011;47574;52.090;5.244;2023-05-10T07:04:32;25.1;;;19.11;;
61675;SDS011;47574;52.090;5.244;2023-05-10T07:06:08;25.7;;;18.2;;
61675;SDS011;47574;52.090;5.244;2023-05-10T07:09:23;24.6;;;18.8;;
61675;SDS011;47574;52.090;5.244;2023-05-10T07:11:01;24.9;;;18.2;;
61675;SDS011;47574;52.090;5.244;2023-05-10T07:12:40;24.2;;;19.2;;
61675;SDS011;47574;52.090;5.244;2023-05-10T07:15:56;23.6;;;18.2;;
61675;SDS011;47574;52.090;5.244;2023-05-10T07:17:33;23.4;;;18.0;;
61675;SDS011;47574;52.090;5.244;2023-05-10T07:19:11;23.4;;;18.3;;
61675;SDS011;47574;52.090;5.244;2023-05-10T07:20:48;21.5;;;17.0;;
61675;SDS011;47574;52.090;5.244;2023-05-10T07:24:04;21.7;;;16.11;;
61675;SDS011;47574;52.090;5.244;2023-05-10T07:25:41;22.2;;;16.9;;
61675;SDS011;47574;52.090;5.244;2023-05-10T07:27:19;21.4;;;16.8;;
61675;SDS011;47574;52.090;5.244;2023-05-10T07:30:33;23.2;;;16.7;;
61675;SDS011;47574;52.090;5.244;2023-05-10T07:32:11;22.1;;;17.0;;
61675;SDS011;47574;52.090;5.244;2023-05-10T07:33:47;21.1;;;16.9;;
61675;SDS011;47574;52.090;5.244;2023-05-10T07:35:25;20.9;;;16.5;;
61675;SDS011;47574;52.090;5.244;2023-05-10T07:38:40;19.61;;;15.5;;
61675;SDS011;47574;52.090;5.244;2023-05-10T07:40:18;20.3;;;16.11;;
61675;SDS011;47574;52.090;5.244;2023-05-10T07:41:55;23.0;;;17.3;;
61675;SDS011;47574;52.090;5.244;2023-05-10T07:45:11;20.0;;;16.2;;
61675;SDS011;47574;52.090;5.244;2023-05-10T07:46:48;19.3;;;16.0;;
61675;SDS011;47574;52.090;5.244;2023-05-10T07:48:26;18.8;;;15.0;;
61675;SDS011;47574;52.090;5.244;2023-05-10T07:51:40;19.41;;;15.0;;
61675;SDS011;47574;52.090;5.244;2023-05-10T07:53:18;21.2;;;15.3;;
61675;SDS011;47574;52.090;5.244;2023-05-10T07:54:55;16.61;;;12.9;;
61675;SDS011;47574;52.090;5.244;2023-05-10T07:56:32;16.9;;;13.3;;
61675;SDS011;47574;52.090;5.244;2023-05-10T07:59:45;16.4;;;13.7;;
61675;SDS011;47574;52.090;5.244;2023-05-10T08:01:23;19.5;;;13.6;;
61675;SDS011;47574;52.090;5.244;2023-05-10T08:03:02;17.41;;;13.1;;
61675;SDS011;47574;52.090;5.244;2023-05-10T08:06:17;13.8;;;11.8;;
61675;SDS011;47574;52.090;5.244;2023-05-10T08:07:55;15.8;;;12.8;;
61675;SDS011;47574;52.090;5.244;2023-05-10T08:09:33;17.11;;;12.9;;
61675;SDS011;47574;52.090;5.244;2023-05-10T08:11:10;15.6;;;13.4;;
61675;SDS011;47574;52.090;5.244;2023-05-10T08:14:25;17.11;;;13.3;;
61675;SDS011;47574;52.090;5.244;2023-05-10T08:16:04;15.7;;;13.6;;
61675;SDS011;47574;52.090;5.244;2023-05-10T08:17:42;17.91;;;14.3;;
61675;SDS011;47574;52.090;5.244;2023-05-10T08:20:58;17.7;;;13.5;;
61675;SDS011;47574;52.090;5.244;2023-05-10T08:22:35;17.8;;;13.7;;
61675;SDS011;47574;52.090;5.244;2023-05-10T08:24:12;17.91;;;13.7;;
61675;SDS011;47574;52.090;5.244;2023-05-10T08:25:50;17.41;;;15.2;;
61675;SDS011;47574;52.090;5.244;2023-05-10T08:29:04;22.2;;;15.0;;
61675;SDS011;47574;52.090;5.244;2023-05-10T08:30:40;22.5;;;14.3;;
61675;SDS011;47574;52.090;5.244;2023-05-10T08:32:18;27.0;;;15.0;;
61675;SDS011;47574;52.090;5.244;2023-05-10T08:35:33;22.1;;;15.3;;
61675;SDS011;47574;52.090;5.244;2023-05-10T08:37:11;28.7;;;15.2;;
61675;SDS011;47574;52.090;5.244;2023-05-10T08:38:49;18.7;;;14.3;;
61675;SDS011;47574;52.090;5.244;2023-05-10T08:40:28;20.6;;;15.0;;
61675;SDS011;47574;52.090;5.244;2023-05-10T08:43:46;17.61;;;14.6;;
61675;SDS011;47574;52.090;5.244;2023-05-10T08:45:25;19.7;;;15.2;;
61675;SDS011;47574;52.090;5.244;2023-05-10T08:47:08;17.91;;;15.2;;
61675;SDS011;47574;52.090;5.244;2023-05-10T08:48:48;19.61;;;15.2;;
61675;SDS011;47574;52.090;5.244;2023-05-10T08:52:06;19.8;;;15.0;;
61675;SDS011;47574;52.090;5.244;2023-05-10T08:53:44;17.8;;;14.7;;
61675;SDS011;47574;52.090;5.244;2023-05-10T08:55:22;15.5;;;13.3;;
61675;SDS011;47574;52.090;5.244;2023-05-10T08:57:00;19.5;;;14.1;;
61675;SDS011;47574;52.090;5.244;2023-05-10T09:00:15;19.5;;;14.1;;
61675;SDS011;47574;52.090;5.244;2023-05-10T09:01:55;17.8;;;14.3;;
61675;SDS011;47574;52.090;5.244;2023-05-10T09:03:34;17.3;;;14.0;;
61675;SDS011;47574;52.090;5.244;2023-05-10T09:06:48;19.11;;;14.3;;
61675;SDS011;47574;52.090;5.244;2023-05-10T09:08:26;17.7;;;14.5;;
61675;SDS011;47574;52.090;5.244;2023-05-10T09:10:04;16.0;;;13.7;;
61675;SDS011;47574;52.090;5.244;2023-05-10T09:11:44;19.0;;;14.7;;
61675;SDS011;47574;52.090;5.244;2023-05-10T09:15:00;18.11;;;14.3;;
61675;SDS011;47574;52.090;5.244;2023-05-10T09:16:38;18.11;;;15.0;;
61675;SDS011;47574;52.090;5.244;2023-05-10T09:18:18;18.8;;;14.8;;
61675;SDS011;47574;52.090;5.244;2023-05-10T09:23:13;18.3;;;15.0;;
61675;SDS011;47574;52.090;5.244;2023-05-10T09:25:03;20.3;;;16.11;;
61675;SDS011;47574;52.090;5.244;2023-05-10T09:26:45;18.91;;;15.2;;
61675;SDS011;47574;52.090;5.244;2023-05-10T09:28:24;19.7;;;16.0;;
61675;SDS011;47574;52.090;5.244;2023-05-10T09:31:44;18.3;;;14.8;;
61675;SDS011;47574;52.090;5.244;2023-05-10T09:33:23;18.2;;;14.5;;
61675;SDS011;47574;52.090;5.244;2023-05-10T09:35:05;18.41;;;14.0;;
61675;SDS011;47574;52.090;5.244;2023-05-10T09:38:33;17.8;;;14.5;;
61675;SDS011;47574;52.090;5.244;2023-05-10T09:40:23;18.61;;;14.4;;
61675;SDS011;47574;52.090;5.244;2023-05-10T09:42:03;19.2;;;14.8;;
61675;SDS011;47574;52.090;5.244;2023-05-10T09:43:42;16.7;;;13.9;;
61675;SDS011;47574;52.090;5.244;2023-05-10T09:45:18;15.1;;;12.8;;
61675;SDS011;47574;52.090;5.244;2023-05-10T09:48:39;18.5;;;13.9;;
61675;SDS011;47574;52.090;5.244;2023-05-10T09:50:19;17.5;;;13.9;;
61675;SDS011;47574;52.090;5.244;2023-05-10T09:51:59;16.7;;;13.2;;
61675;SDS011;47574;52.090;5.244;2023-05-10T09:53:38;15.1;;;13.1;;
61675;SDS011;47574;52.090;5.244;2023-05-10T09:56:55;17.3;;;13.2;;
61675;SDS011;47574;52.090;5.244;2023-05-10T09:58:35;15.1;;;12.6;;
61675;SDS011;47574;52.090;5.244;2023-05-10T10:00:16;17.0;;;12.4;;
61675;SDS011;47574;52.090;5.244;2023-05-10T10:01:56;14.5;;;12.4;;
61675;SDS011;47574;52.090;5.244;2023-05-10T10:05:19;13.4;;;12.0;;
61675;SDS011;47574;52.090;5.244;2023-05-10T10:06:58;15.3;;;12.9;;
61675;SDS011;47574;52.090;5.244;2023-05-10T10:08:36;14.7;;;11.1;;
61675;SDS011;47574;52.090;5.244;2023-05-10T10:10:15;13.6;;;10.3;;
61675;SDS011;47574;52.090;5.244;2023-05-10T10:13:31;13.1;;;10.3;;
61675;SDS011;47574;52.090;5.244;2023-05-10T10:15:09;12.1;;;10.9;;
61675;SDS011;47574;52.090;5.244;2023-05-10T10:16:47;12.0;;;10.7;;
61675;SDS011;47574;52.090;5.244;2023-05-10T10:20:05;15.5;;;11.6;;
61675;SDS011;47574;52.090;5.244;2023-05-10T10:21:42;12.5;;;10.3;;
61675;SDS011;47574;52.090;5.244;2023-05-10T10:23:20;10.7;;;9.4;;
61675;SDS011;47574;52.090;5.244;2023-05-10T10:24:58;9.81;;;8.0;;
61675;SDS011;47574;52.090;5.244;2023-05-10T10:28:19;8.6;;;7.7;;
61675;SDS011;47574;52.090;5.244;2023-05-10T10:30:05;9.4;;;8.4;;
61675;SDS011;47574;52.090;5.244;2023-05-10T10:31:55;9.21;;;7.6;;
61675;SDS011;47574;52.090;5.244;2023-05-10T10:33:50;7.5;;;6.8;;
61675;SDS011;47574;52.090;5.244;2023-05-10T10:35:36;7.4;;;6.7;;
61675;SDS011;47574;52.090;5.244;2023-05-10T10:38:55;7.7;;;6.5;;
61675;SDS011;47574;52.090;5.244;2023-05-10T10:40:33;10.0;;;6.9;;
61675;SDS011;47574;52.090;5.244;2023-05-10T10:42:11;7.6;;;6.8;;
61675;SDS011;47574;52.090;5.244;2023-05-10T10:43:48;9.71;;;6.8;;
61675;SDS011;47574;52.090;5.244;2023-05-10T10:47:04;7.7;;;7.0;;
61675;SDS011;47574;52.090;5.244;2023-05-10T10:48:47;9.71;;;7.1;;
61675;SDS011;47574;52.090;5.244;2023-05-10T10:50:25;7.9;;;7.1;;
61675;SDS011;47574;52.090;5.244;2023-05-10T10:54:08;8.5;;;7.6;;
61675;SDS011;47574;52.090;5.244;2023-05-10T10:55:46;8.4;;;7.3;;
61675;SDS011;47574;52.090;5.244;2023-05-10T10:57:25;8.9;;;7.3;;
61675;SDS011;47574;52.090;5.244;2023-05-10T10:59:03;8.2;;;7.4;;
61675;SDS011;47574;52.090;5.244;2023-05-10T11:00:39;9.0;;;7.8;;
61675;SDS011;47574;52.090;5.244;2023-05-10T11:04:26;8.5;;;7.1;;
61675;SDS011;47574;52.090;5.244;2023-05-10T11:06:02;7.7;;;6.8;;
61675;SDS011;47574;52.090;5.244;2023-05-10T11:07:45;8.31;;;7.2;;
61675;SDS011;47574;52.090;5.244;2023-05-10T11:09:26;7.9;;;7.2;;
61675;SDS011;47574;52.090;5.244;2023-05-10T11:11:04;7.6;;;6.7;;
61675;SDS011;47574;52.090;5.244;2023-05-10T11:14:27;9.81;;;7.4;;
61675;SDS011;47574;52.090;5.244;2023-05-10T11:16:11;8.1;;;6.9;;
61675;SDS011;47574;52.090;5.244;2023-05-10T11:17:50;7.7;;;6.8;;
61675;SDS011;47574;52.090;5.244;2023-05-10T11:19:27;7.7;;;6.9;;
61675;SDS011;47574;52.090;5.244;2023-05-10T11:22:55;9.21;;;6.8;;
61675;SDS011;47574;52.090;5.244;2023-05-10T11:24:31;8.1;;;7.0;;
61675;SDS011;47574;52.090;5.244;2023-05-10T11:26:07;7.7;;;6.8;;
61675;SDS011;47574;52.090;5.244;2023-05-10T11:27:44;6.9;;;6.2;;
61675;SDS011;47574;52.090;5.244;2023-05-10T11:30:59;6.4;;;5.8;;
61675;SDS011;47574;52.090;5.244;2023-05-10T11:32:36;7.6;;;6.0;;
61675;SDS011;47574;52.090;5.244;2023-05-10T11:34:22;9.0;;;7.0;;
61675;SDS011;47574;52.090;5.244;2023-05-10T11:36:00;7.8;;;6.8;;
61675;SDS011;47574;52.090;5.244;2023-05-10T11:39:12;7.5;;;6.7;;
61675;SDS011;47574;52.090;5.244;2023-05-10T11:40:49;7.5;;;6.7;;
61675;SDS011;47574;52.090;5.244;2023-05-10T11:42:27;8.4;;;7.2;;
61675;SDS011;47574;52.090;5.244;2023-05-10T11:45:41;9.21;;;7.5;;
61675;SDS011;47574;52.090;5.244;2023-05-10T11:47:18;9.1;;;7.3;;
61675;SDS011;47574;52.090;5.244;2023-05-10T11:48:55;7.8;;;6.4;;
61675;SDS011;47574;52.090;5.244;2023-05-10T11:52:10;8.2;;;6.7;;
61675;SDS011;47574;52.090;5.244;2023-05-10T11:53:46;7.8;;;6.3;;
61675;SDS011;47574;52.090;5.244;2023-05-10T11:55:24;6.3;;;5.6;;
61675;SDS011;47574;52.090;5.244;2023-05-10T11:57:01;6.3;;;5.6;;
61675;SDS011;47574;52.090;5.244;2023-05-10T12:00:15;6.7;;;5.6;;
61675;SDS011;47574;52.090;5.244;2023-05-10T12:01:51;5.9;;;5.3;;
61675;SDS011;47574;52.090;5.244;2023-05-10T12:03:27;6.9;;;6.2;;
61675;SDS011;47574;52.090;5.244;2023-05-10T12:06:42;7.0;;;5.8;;
61675;SDS011;47574;52.090;5.244;2023-05-10T12:08:20;7.0;;;5.4;;
61675;SDS011;47574;52.090;5.244;2023-05-10T12:10:06;6.2;;;5.11;;
61675;SDS011;47574;52.090;5.244;2023-05-10T12:11:43;6.2;;;5.2;;
61675;SDS011;47574;52.090;5.244;2023-05-10T12:14:56;6.0;;;5.4;;
61675;SDS011;47574;52.090;5.244;2023-05-10T12:16:32;6.3;;;5.2;;
61675;SDS011;47574;52.090;5.244;2023-05-10T12:18:09;7.5;;;5.2;;
61675;SDS011;47574;52.090;5.244;2023-05-10T12:21:22;5.2;;;4.3;;
61675;SDS011;47574;52.090;5.244;2023-05-10T12:22:58;4.3;;;3.9;;
61675;SDS011;47574;52.090;5.244;2023-05-10T12:24:34;4.61;;;3.9;;
61675;SDS011;47574;52.090;5.244;2023-05-10T12:26:12;5.2;;;4.7;;
61675;SDS011;47574;52.090;5.244;2023-05-10T12:29:29;5.9;;;4.61;;
61675;SDS011;47574;52.090;5.244;2023-05-10T12:31:06;5.11;;;4.0;;
61675;SDS011;47574;52.090;5.244;2023-05-10T12:32:43;5.11;;;4.61;;
61675;SDS011;47574;52.090;5.244;2023-05-10T12:36:00;5.5;;;4.91;;
61675;SDS011;47574;52.090;5.244;2023-05-10T12:37:37;8.2;;;5.0;;
61675;SDS011;47574;52.090;5.244;2023-05-10T12:39:14;10.0;;;7.7;;
61675;SDS011;47574;52.090;5.244;2023-05-10T12:40:50;9.9;;;7.1;;
61675;SDS011;47574;52.090;5.244;2023-05-10T12:44:02;8.5;;;7.6;;
61675;SDS011;47574;52.090;5.244;2023-05-10T12:45:38;10.0;;;7.9;;
61675;SDS011;47574;52.090;5.244;2023-05-10T12:47:14;8.2;;;7.4;;
61675;SDS011;47574;52.090;5.244;2023-05-10T12:50:27;8.1;;;7.4;;
61675;SDS011;47574;52.090;5.244;2023-05-10T12:52:03;8.71;;;7.9;;